Portada
METAR-TAF:

METAR-TAF

Aeroports :

Vanua Lava, Vanuatu

latitud: 13-51-06S, longitud: 167-32-13E, altitud: 2 m

Observació

L'informe es va fer fa 47 minuts, a les 21:00 UTC
Vent calma
Temperatura 28°C
Humitat 89%
Pressió 1015 hPa
Visibilitat 10 km o més
Cel ennuvolat a una alçada de 2000 ft

METAR: NVSC 262100Z 00000KT 9999 BKN020 28/26 Q1015

Hora: 08:47 (21:47 UTC)

Pronòstic

L'informe es va fer fa 5 hores i 47 minuts, a les 16:00 UTC
Pronòstic vàlid del 26 a les 18 UTC al 27 a les 18 UTC
Vent 2 kt amb direcció variable
Visibilitat: 9000 m
Núvols disperses a una alçada de 1800 ft
Cel ennuvolat a una alçada de 4000 ft
Cel ennuvolat a una alçada de 1800 ft
xàfecs de pluja

TAF: NVSC 261600Z 2618/2718 VRB02KT 9999 SCT018 BKN040 INTER 2618/2624 9000 -SHRA BKN018

Observacions i pronòstics meteorològics de més de 4000 aeroports (METAR i TAF).

Les estacions disponibles són els punts grocs i vermells al mapa.

Posi el ratolí al punt desitjat per veure el nom de l'estació.

Feu clic per veure les observacions i els pronòstics meteorològics.

Per canviar el mapa: feu clic els botons verds amb una creu de color negre per apropar; al botó verd amb un guió per allunyar la imatge; o en les fletxes verdes per a mapes adjacents.


METAR-TAF: